EKCH/CPH METAR and TAF weather

Enter ICAO airport designator
Station Type Date Time Source
EKCH METAR 2020/11/28 19:20 UTC NOAA

EKCH 281920Z 04007KT 9999 BKN010 02/01 Q1029 BECMG BKN015


Station Type Date Time Source
EKCH Decoded METAR 2020/11/28 19:20 UTC NOAA

Koebenhavn / Kastrup, Denmark (EKCH) 55-37N 012-39E 5M
Nov 28, 2020 - 02:20 PM EST / 2020.11.28 1920 UTC
Wind: from the NE (040 degrees) at 8 MPH (7 KT):0
Visibility: greater than 7 mile(s):0
Sky conditions: mostly cloudy
Temperature: 35 F (2 C)
Windchill: 28 F (-2 C):1
Dew Point: 33 F (1 C)
Relative Humidity: 93%
Pressure (altimeter): 30.39 in. Hg (1029 hPa)
ob: EKCH 281920Z 04007KT 9999 BKN010 02/01 Q1029 BECMG BKN015
cycle: 19

Station Type Date Time Source
EKCH TAF 2020/11/28 18:30 UTC NOAA

TAF EKCH 281713Z 2818/2918 02008KT 9999 SCT012 BKN020
TEMPO 2818/2822 3000 BR BKN008 PROB40 2822/2910 0200 FG VV002
TEMPO 2910/2912 4000 BR BKN010

Example: see airport list